sensor_id;sensor_type;location;lat;lon;timestamp;P1;durP1;ratioP1;P2;durP2;ratioP2
17890;SDS011;9071;48.220;14.480;2023-04-03T00:01:35;5.67;;;4.27;;
17890;SDS011;9071;48.220;14.480;2023-04-03T00:06:39;6.63;;;4.83;;
17890;SDS011;9071;48.220;14.480;2023-04-03T00:11:41;7.93;;;4.87;;
17890;SDS011;9071;48.220;14.480;2023-04-03T00:16:44;6.60;;;5.33;;
17890;SDS011;9071;48.220;14.480;2023-04-03T00:21:47;5.60;;;5.00;;
17890;SDS011;9071;48.220;14.480;2023-04-03T00:26:49;6.50;;;4.93;;
17890;SDS011;9071;48.220;14.480;2023-04-03T00:31:53;8.63;;;5.60;;
17890;SDS011;9071;48.220;14.480;2023-04-03T00:36:56;7.50;;;4.87;;
17890;SDS011;9071;48.220;14.480;2023-04-03T00:41:58;9.20;;;4.60;;
17890;SDS011;9071;48.220;14.480;2023-04-03T00:47:00;6.20;;;4.80;;
17890;SDS011;9071;48.220;14.480;2023-04-03T00:52:06;15.37;;;6.60;;
17890;SDS011;9071;48.220;14.480;2023-04-03T00:57:12;7.93;;;5.37;;
17890;SDS011;9071;48.220;14.480;2023-04-03T01:02:16;5.80;;;4.87;;
17890;SDS011;9071;48.220;14.480;2023-04-03T01:07:21;5.97;;;4.20;;
17890;SDS011;9071;48.220;14.480;2023-04-03T01:12:26;7.33;;;3.90;;
17890;SDS011;9071;48.220;14.480;2023-04-03T01:17:30;6.17;;;4.10;;
17890;SDS011;9071;48.220;14.480;2023-04-03T01:22:36;5.00;;;3.83;;
17890;SDS011;9071;48.220;14.480;2023-04-03T01:27:44;5.17;;;3.77;;
17890;SDS011;9071;48.220;14.480;2023-04-03T01:32:47;4.30;;;3.70;;
17890;SDS011;9071;48.220;14.480;2023-04-03T01:37:49;5.07;;;3.83;;
17890;SDS011;9071;48.220;14.480;2023-04-03T01:42:51;5.43;;;3.47;;
17890;SDS011;9071;48.220;14.480;2023-04-03T01:47:55;5.67;;;4.43;;
17890;SDS011;9071;48.220;14.480;2023-04-03T01:52:57;5.03;;;3.73;;
17890;SDS011;9071;48.220;14.480;2023-04-03T01:57:59;6.60;;;3.90;;
17890;SDS011;9071;48.220;14.480;2023-04-03T02:03:02;4.63;;;4.07;;
17890;SDS011;9071;48.220;14.480;2023-04-03T02:08:04;5.67;;;3.83;;
17890;SDS011;9071;48.220;14.480;2023-04-03T02:13:07;4.23;;;3.50;;
17890;SDS011;9071;48.220;14.480;2023-04-03T02:18:10;5.70;;;3.77;;
17890;SDS011;9071;48.220;14.480;2023-04-03T02:23:13;8.50;;;3.30;;
17890;SDS011;9071;48.220;14.480;2023-04-03T02:28:15;4.30;;;3.60;;
17890;SDS011;9071;48.220;14.480;2023-04-03T02:33:18;5.13;;;3.73;;
17890;SDS011;9071;48.220;14.480;2023-04-03T02:38:21;5.17;;;4.10;;
17890;SDS011;9071;48.220;14.480;2023-04-03T02:43:23;4.50;;;3.33;;
17890;SDS011;9071;48.220;14.480;2023-04-03T02:48:27;4.80;;;3.70;;
17890;SDS011;9071;48.220;14.480;2023-04-03T02:53:29;6.30;;;3.60;;
17890;SDS011;9071;48.220;14.480;2023-04-03T02:58:31;4.73;;;3.90;;
17890;SDS011;9071;48.220;14.480;2023-04-03T03:03:35;4.63;;;3.83;;
17890;SDS011;9071;48.220;14.480;2023-04-03T03:08:37;5.37;;;4.23;;
17890;SDS011;9071;48.220;14.480;2023-04-03T03:13:40;6.00;;;4.23;;
17890;SDS011;9071;48.220;14.480;2023-04-03T03:18:43;5.37;;;4.00;;
17890;SDS011;9071;48.220;14.480;2023-04-03T03:23:45;5.40;;;4.03;;
17890;SDS011;9071;48.220;14.480;2023-04-03T03:28:47;5.57;;;4.33;;
17890;SDS011;9071;48.220;14.480;2023-04-03T03:33:51;5.00;;;4.23;;
17890;SDS011;9071;48.220;14.480;2023-04-03T03:38:53;7.60;;;4.90;;
17890;SDS011;9071;48.220;14.480;2023-04-03T03:43:55;5.43;;;4.40;;
17890;SDS011;9071;48.220;14.480;2023-04-03T03:48:58;6.47;;;4.50;;
17890;SDS011;9071;48.220;14.480;2023-04-03T03:54:01;5.07;;;4.20;;
17890;SDS011;9071;48.220;14.480;2023-04-03T03:59:03;4.90;;;4.37;;
17890;SDS011;9071;48.220;14.480;2023-04-03T04:04:06;7.87;;;4.70;;
17890;SDS011;9071;48.220;14.480;2023-04-03T04:09:08;5.53;;;4.20;;
17890;SDS011;9071;48.220;14.480;2023-04-03T04:14:10;6.83;;;5.13;;
17890;SDS011;9071;48.220;14.480;2023-04-03T04:19:15;5.27;;;4.10;;
17890;SDS011;9071;48.220;14.480;2023-04-03T04:24:17;5.97;;;4.50;;
17890;SDS011;9071;48.220;14.480;2023-04-03T04:29:19;8.97;;;5.33;;
17890;SDS011;9071;48.220;14.480;2023-04-03T04:34:22;9.23;;;5.20;;
17890;SDS011;9071;48.220;14.480;2023-04-03T04:39:24;6.93;;;4.70;;
17890;SDS011;9071;48.220;14.480;2023-04-03T04:44:26;8.20;;;4.80;;
17890;SDS011;9071;48.220;14.480;2023-04-03T04:49:30;8.87;;;5.40;;
17890;SDS011;9071;48.220;14.480;2023-04-03T04:54:32;6.40;;;5.17;;
17890;SDS011;9071;48.220;14.480;2023-04-03T04:59:34;7.40;;;5.53;;
17890;SDS011;9071;48.220;14.480;2023-04-03T05:04:38;7.93;;;5.53;;
17890;SDS011;9071;48.220;14.480;2023-04-03T05:09:40;9.77;;;5.33;;
17890;SDS011;9071;48.220;14.480;2023-04-03T05:14:42;10.40;;;6.40;;
17890;SDS011;9071;48.220;14.480;2023-04-03T05:19:45;8.13;;;5.50;;
17890;SDS011;9071;48.220;14.480;2023-04-03T05:24:47;6.47;;;4.97;;
17890;SDS011;9071;48.220;14.480;2023-04-03T05:29:49;6.47;;;5.33;;
17890;SDS011;9071;48.220;14.480;2023-04-03T05:34:55;7.80;;;5.53;;
17890;SDS011;9071;48.220;14.480;2023-04-03T05:39:57;8.03;;;5.00;;
17890;SDS011;9071;48.220;14.480;2023-04-03T05:44:59;6.47;;;5.33;;
17890;SDS011;9071;48.220;14.480;2023-04-03T05:50:04;7.77;;;5.17;;
17890;SDS011;9071;48.220;14.480;2023-04-03T05:55:07;9.13;;;5.20;;
17890;SDS011;9071;48.220;14.480;2023-04-03T06:00:11;7.30;;;4.80;;
17890;SDS011;9071;48.220;14.480;2023-04-03T06:05:17;9.53;;;5.23;;
17890;SDS011;9071;48.220;14.480;2023-04-03T06:10:19;7.03;;;5.00;;
17890;SDS011;9071;48.220;14.480;2023-04-03T06:15:21;6.93;;;4.60;;
17890;SDS011;9071;48.220;14.480;2023-04-03T06:20:24;8.03;;;5.40;;
17890;SDS011;9071;48.220;14.480;2023-04-03T06:25:26;10.63;;;5.00;;
17890;SDS011;9071;48.220;14.480;2023-04-03T06:30:29;7.90;;;5.40;;
17890;SDS011;9071;48.220;14.480;2023-04-03T06:35:32;6.90;;;4.53;;
17890;SDS011;9071;48.220;14.480;2023-04-03T06:40:35;6.60;;;5.00;;
17890;SDS011;9071;48.220;14.480;2023-04-03T06:45:37;9.33;;;5.27;;
17890;SDS011;9071;48.220;14.480;2023-04-03T06:50:40;8.13;;;5.60;;
17890;SDS011;9071;48.220;14.480;2023-04-03T06:55:43;6.77;;;4.67;;
17890;SDS011;9071;48.220;14.480;2023-04-03T07:00:45;7.60;;;4.80;;
17890;SDS011;9071;48.220;14.480;2023-04-03T07:05:48;8.60;;;4.90;;
17890;SDS011;9071;48.220;14.480;2023-04-03T07:10:50;6.03;;;4.57;;
17890;SDS011;9071;48.220;14.480;2023-04-03T07:15:53;5.87;;;3.93;;
17890;SDS011;9071;48.220;14.480;2023-04-03T07:20:56;7.73;;;4.13;;
17890;SDS011;9071;48.220;14.480;2023-04-03T07:25:58;4.63;;;3.90;;
17890;SDS011;9071;48.220;14.480;2023-04-03T07:31:02;6.40;;;3.93;;
17890;SDS011;9071;48.220;14.480;2023-04-03T07:36:08;5.60;;;4.03;;
17890;SDS011;9071;48.220;14.480;2023-04-03T07:41:11;5.83;;;4.87;;
17890;SDS011;9071;48.220;14.480;2023-04-03T07:46:15;7.20;;;5.47;;
17890;SDS011;9071;48.220;14.480;2023-04-03T07:51:20;8.37;;;5.57;;
17890;SDS011;9071;48.220;14.480;2023-04-03T07:56:22;7.43;;;4.43;;
17890;SDS011;9071;48.220;14.480;2023-04-03T08:01:25;6.60;;;4.40;;
17890;SDS011;9071;48.220;14.480;2023-04-03T08:06:30;6.50;;;4.10;;
17890;SDS011;9071;48.220;14.480;2023-04-03T08:11:34;6.17;;;3.50;;
17890;SDS011;9071;48.220;14.480;2023-04-03T08:16:37;5.87;;;4.40;;
17890;SDS011;9071;48.220;14.480;2023-04-03T08:21:41;5.70;;;3.90;;
17890;SDS011;9071;48.220;14.480;2023-04-03T08:26:43;6.17;;;3.43;;
17890;SDS011;9071;48.220;14.480;2023-04-03T08:31:45;5.83;;;3.13;;
17890;SDS011;9071;48.220;14.480;2023-04-03T08:36:48;3.73;;;2.87;;
17890;SDS011;9071;48.220;14.480;2023-04-03T08:41:51;4.63;;;3.10;;
17890;SDS011;9071;48.220;14.480;2023-04-03T08:47:04;4.17;;;3.07;;
17890;SDS011;9071;48.220;14.480;2023-04-03T08:52:25;5.03;;;2.80;;
17890;SDS011;9071;48.220;14.480;2023-04-03T08:57:37;9.23;;;4.87;;
17890;SDS011;9071;48.220;14.480;2023-04-03T09:02:43;5.90;;;2.40;;
17890;SDS011;9071;48.220;14.480;2023-04-03T09:07:49;3.80;;;2.47;;
17890;SDS011;9071;48.220;14.480;2023-04-03T09:12:59;5.13;;;2.87;;
17890;SDS011;9071;48.220;14.480;2023-04-03T09:18:10;6.00;;;3.10;;
17890;SDS011;9071;48.220;14.480;2023-04-03T09:23:22;3.90;;;3.13;;
17890;SDS011;9071;48.220;14.480;2023-04-03T09:28:29;6.30;;;3.93;;
17890;SDS011;9071;48.220;14.480;2023-04-03T09:33:32;6.27;;;3.00;;
17890;SDS011;9071;48.220;14.480;2023-04-03T09:38:37;3.60;;;2.60;;
17890;SDS011;9071;48.220;14.480;2023-04-03T09:43:39;3.70;;;2.60;;
17890;SDS011;9071;48.220;14.480;2023-04-03T09:48:55;6.03;;;2.90;;
17890;SDS011;9071;48.220;14.480;2023-04-03T09:54:00;5.10;;;3.03;;
17890;SDS011;9071;48.220;14.480;2023-04-03T09:59:27;4.70;;;2.87;;
17890;SDS011;9071;48.220;14.480;2023-04-03T10:04:39;4.73;;;2.70;;
17890;SDS011;9071;48.220;14.480;2023-04-03T10:09:44;3.57;;;2.60;;
17890;SDS011;9071;48.220;14.480;2023-04-03T10:14:57;2.33;;;2.10;;
17890;SDS011;9071;48.220;14.480;2023-04-03T10:20:00;2.90;;;2.23;;
17890;SDS011;9071;48.220;14.480;2023-04-03T10:25:12;2.73;;;2.33;;
17890;SDS011;9071;48.220;14.480;2023-04-03T10:30:25;7.67;;;3.20;;
17890;SDS011;9071;48.220;14.480;2023-04-03T10:35:36;6.23;;;2.97;;
17890;SDS011;9071;48.220;14.480;2023-04-03T10:40:50;4.23;;;2.30;;
17890;SDS011;9071;48.220;14.480;2023-04-03T10:46:00;4.13;;;2.37;;
17890;SDS011;9071;48.220;14.480;2023-04-03T10:51:08;5.83;;;2.77;;
17890;SDS011;9071;48.220;14.480;2023-04-03T10:56:22;3.47;;;2.70;;
17890;SDS011;9071;48.220;14.480;2023-04-03T11:01:32;7.30;;;2.43;;
17890;SDS011;9071;48.220;14.480;2023-04-03T11:06:37;3.67;;;2.53;;
17890;SDS011;9071;48.220;14.480;2023-04-03T11:11:45;4.63;;;3.13;;
17890;SDS011;9071;48.220;14.480;2023-04-03T11:16:50;4.37;;;2.70;;
17890;SDS011;9071;48.220;14.480;2023-04-03T11:22:01;5.73;;;3.03;;
17890;SDS011;9071;48.220;14.480;2023-04-03T11:27:09;3.40;;;2.67;;
17890;SDS011;9071;48.220;14.480;2023-04-03T11:32:27;4.43;;;2.63;;
17890;SDS011;9071;48.220;14.480;2023-04-03T11:37:40;5.03;;;3.07;;
17890;SDS011;9071;48.220;14.480;2023-04-03T11:42:48;5.20;;;2.77;;
17890;SDS011;9071;48.220;14.480;2023-04-03T11:47:54;4.03;;;2.03;;
17890;SDS011;9071;48.220;14.480;2023-04-03T11:52:59;5.63;;;3.03;;
17890;SDS011;9071;48.220;14.480;2023-04-03T11:58:10;2.73;;;2.20;;
17890;SDS011;9071;48.220;14.480;2023-04-03T12:03:33;4.50;;;2.67;;
17890;SDS011;9071;48.220;14.480;2023-04-03T12:08:53;2.93;;;2.10;;
17890;SDS011;9071;48.220;14.480;2023-04-03T12:14:12;4.20;;;3.17;;
17890;SDS011;9071;48.220;14.480;2023-04-03T12:19:35;4.23;;;2.53;;
17890;SDS011;9071;48.220;14.480;2023-04-03T12:24:41;3.80;;;2.73;;
17890;SDS011;9071;48.220;14.480;2023-04-03T12:29:47;5.47;;;2.60;;
17890;SDS011;9071;48.220;14.480;2023-04-03T12:35:05;7.63;;;3.97;;
17890;SDS011;9071;48.220;14.480;2023-04-03T12:40:16;3.03;;;2.70;;
17890;SDS011;9071;48.220;14.480;2023-04-03T12:45:27;5.57;;;3.60;;
17890;SDS011;9071;48.220;14.480;2023-04-03T12:50:30;3.47;;;2.57;;
17890;SDS011;9071;48.220;14.480;2023-04-03T12:55:34;6.87;;;3.50;;
17890;SDS011;9071;48.220;14.480;2023-04-03T13:00:37;4.20;;;3.13;;
17890;SDS011;9071;48.220;14.480;2023-04-03T13:05:39;5.80;;;2.77;;
17890;SDS011;9071;48.220;14.480;2023-04-03T13:10:48;5.20;;;3.13;;
17890;SDS011;9071;48.220;14.480;2023-04-03T13:15:56;6.93;;;4.10;;
17890;SDS011;9071;48.220;14.480;2023-04-03T13:21:00;5.00;;;3.63;;
17890;SDS011;9071;48.220;14.480;2023-04-03T13:26:06;4.20;;;2.93;;
17890;SDS011;9071;48.220;14.480;2023-04-03T13:31:16;6.07;;;3.03;;
17890;SDS011;9071;48.220;14.480;2023-04-03T13:36:21;7.20;;;4.00;;
17890;SDS011;9071;48.220;14.480;2023-04-03T13:41:26;6.17;;;3.63;;
17890;SDS011;9071;48.220;14.480;2023-04-03T13:46:33;3.60;;;2.77;;
17890;SDS011;9071;48.220;14.480;2023-04-03T13:51:37;6.43;;;3.43;;
17890;SDS011;9071;48.220;14.480;2023-04-03T13:56:40;3.97;;;3.13;;
17890;SDS011;9071;48.220;14.480;2023-04-03T14:01:45;4.83;;;3.40;;
17890;SDS011;9071;48.220;14.480;2023-04-03T14:06:49;5.07;;;2.80;;
17890;SDS011;9071;48.220;14.480;2023-04-03T14:11:53;4.37;;;2.80;;
17890;SDS011;9071;48.220;14.480;2023-04-03T14:16:59;6.20;;;3.10;;
17890;SDS011;9071;48.220;14.480;2023-04-03T14:22:10;5.60;;;3.67;;
17890;SDS011;9071;48.220;14.480;2023-04-03T14:27:18;5.77;;;3.00;;
17890;SDS011;9071;48.220;14.480;2023-04-03T14:32:23;4.37;;;2.70;;
17890;SDS011;9071;48.220;14.480;2023-04-03T14:37:27;4.40;;;3.03;;
17890;SDS011;9071;48.220;14.480;2023-04-03T14:42:31;5.23;;;3.03;;
17890;SDS011;9071;48.220;14.480;2023-04-03T14:47:39;4.37;;;2.97;;
17890;SDS011;9071;48.220;14.480;2023-04-03T14:52:44;6.17;;;2.93;;
17890;SDS011;9071;48.220;14.480;2023-04-03T14:57:47;7.70;;;3.43;;
17890;SDS011;9071;48.220;14.480;2023-04-03T15:02:51;6.30;;;3.47;;
17890;SDS011;9071;48.220;14.480;2023-04-03T15:07:54;4.27;;;2.83;;
17890;SDS011;9071;48.220;14.480;2023-04-03T15:12:57;3.97;;;2.47;;
17890;SDS011;9071;48.220;14.480;2023-04-03T15:18:00;5.07;;;2.60;;
17890;SDS011;9071;48.220;14.480;2023-04-03T15:23:02;5.97;;;3.07;;
17890;SDS011;9071;48.220;14.480;2023-04-03T15:28:06;4.23;;;2.77;;
17890;SDS011;9071;48.220;14.480;2023-04-03T15:33:11;4.80;;;2.90;;
17890;SDS011;9071;48.220;14.480;2023-04-03T15:38:13;4.70;;;2.90;;
17890;SDS011;9071;48.220;14.480;2023-04-03T15:43:15;4.40;;;2.60;;
17890;SDS011;9071;48.220;14.480;2023-04-03T15:48:19;6.00;;;2.70;;
17890;SDS011;9071;48.220;14.480;2023-04-03T15:53:21;4.77;;;3.17;;
17890;SDS011;9071;48.220;14.480;2023-04-03T15:58:23;3.93;;;2.50;;
17890;SDS011;9071;48.220;14.480;2023-04-03T16:03:27;4.23;;;2.80;;
17890;SDS011;9071;48.220;14.480;2023-04-03T16:08:30;4.70;;;3.10;;
17890;SDS011;9071;48.220;14.480;2023-04-03T16:13:32;5.97;;;3.50;;
17890;SDS011;9071;48.220;14.480;2023-04-03T16:18:36;8.70;;;4.33;;
17890;SDS011;9071;48.220;14.480;2023-04-03T16:23:38;6.10;;;3.83;;
17890;SDS011;9071;48.220;14.480;2023-04-03T16:28:40;8.50;;;3.67;;
17890;SDS011;9071;48.220;14.480;2023-04-03T16:33:44;3.77;;;2.97;;
17890;SDS011;9071;48.220;14.480;2023-04-03T16:38:46;4.80;;;3.13;;
17890;SDS011;9071;48.220;14.480;2023-04-03T16:43:48;5.20;;;3.67;;
17890;SDS011;9071;48.220;14.480;2023-04-03T16:48:52;6.40;;;3.30;;
17890;SDS011;9071;48.220;14.480;2023-04-03T16:53:54;7.83;;;3.57;;
17890;SDS011;9071;48.220;14.480;2023-04-03T16:58:57;4.77;;;3.10;;
17890;SDS011;9071;48.220;14.480;2023-04-03T17:04:00;5.73;;;3.30;;
17890;SDS011;9071;48.220;14.480;2023-04-03T17:09:02;7.37;;;3.60;;
17890;SDS011;9071;48.220;14.480;2023-04-03T17:14:05;5.63;;;2.97;;
17890;SDS011;9071;48.220;14.480;2023-04-03T17:19:08;9.87;;;4.10;;
17890;SDS011;9071;48.220;14.480;2023-04-03T17:24:11;4.50;;;3.27;;
17890;SDS011;9071;48.220;14.480;2023-04-03T17:29:14;6.87;;;3.30;;
17890;SDS011;9071;48.220;14.480;2023-04-03T17:34:18;11.80;;;5.37;;
17890;SDS011;9071;48.220;14.480;2023-04-03T17:39:20;9.07;;;4.23;;
17890;SDS011;9071;48.220;14.480;2023-04-03T17:44:23;11.10;;;5.17;;
17890;SDS011;9071;48.220;14.480;2023-04-03T17:49:26;7.67;;;3.40;;
17890;SDS011;9071;48.220;14.480;2023-04-03T17:54:28;16.77;;;6.53;;
17890;SDS011;9071;48.220;14.480;2023-04-03T17:59:31;8.73;;;4.73;;
17890;SDS011;9071;48.220;14.480;2023-04-03T18:04:34;5.87;;;2.97;;
17890;SDS011;9071;48.220;14.480;2023-04-03T18:09:36;5.57;;;4.07;;
17890;SDS011;9071;48.220;14.480;2023-04-03T18:14:40;6.83;;;3.23;;
17890;SDS011;9071;48.220;14.480;2023-04-03T18:19:43;6.27;;;3.70;;
17890;SDS011;9071;48.220;14.480;2023-04-03T18:24:45;6.23;;;3.63;;
17890;SDS011;9071;48.220;14.480;2023-04-03T18:29:49;6.40;;;4.17;;
17890;SDS011;9071;48.220;14.480;2023-04-03T18:34:56;6.53;;;3.50;;
17890;SDS011;9071;48.220;14.480;2023-04-03T18:39:58;4.43;;;3.07;;
17890;SDS011;9071;48.220;14.480;2023-04-03T18:45:00;5.33;;;3.37;;
17890;SDS011;9071;48.220;14.480;2023-04-03T18:50:07;7.60;;;3.23;;
17890;SDS011;9071;48.220;14.480;2023-04-03T18:55:09;8.30;;;4.30;;
17890;SDS011;9071;48.220;14.480;2023-04-03T19:00:13;5.40;;;2.40;;
17890;SDS011;9071;48.220;14.480;2023-04-03T19:05:18;5.13;;;3.80;;
17890;SDS011;9071;48.220;14.480;2023-04-03T19:10:21;5.43;;;3.50;;
17890;SDS011;9071;48.220;14.480;2023-04-03T19:15:23;5.07;;;2.77;;
17890;SDS011;9071;48.220;14.480;2023-04-03T19:20:27;5.73;;;2.60;;
17890;SDS011;9071;48.220;14.480;2023-04-03T19:25:29;4.83;;;2.60;;
17890;SDS011;9071;48.220;14.480;2023-04-03T19:30:31;4.73;;;2.33;;
17890;SDS011;9071;48.220;14.480;2023-04-03T19:35:35;5.30;;;2.70;;
17890;SDS011;9071;48.220;14.480;2023-04-03T19:40:40;5.23;;;2.90;;
17890;SDS011;9071;48.220;14.480;2023-04-03T19:45:43;3.63;;;2.40;;
17890;SDS011;9071;48.220;14.480;2023-04-03T19:50:47;4.80;;;2.63;;
17890;SDS011;9071;48.220;14.480;2023-04-03T19:55:49;8.10;;;4.23;;
17890;SDS011;9071;48.220;14.480;2023-04-03T20:00:51;4.43;;;2.80;;
17890;SDS011;9071;48.220;14.480;2023-04-03T20:05:55;4.90;;;3.20;;
17890;SDS011;9071;48.220;14.480;2023-04-03T20:10:57;4.80;;;3.07;;
17890;SDS011;9071;48.220;14.480;2023-04-03T20:16:00;8.10;;;4.43;;
17890;SDS011;9071;48.220;14.480;2023-04-03T20:21:05;6.57;;;3.27;;
17890;SDS011;9071;48.220;14.480;2023-04-03T20:26:07;5.83;;;3.00;;
17890;SDS011;9071;48.220;14.480;2023-04-03T20:31:09;10.67;;;4.50;;
17890;SDS011;9071;48.220;14.480;2023-04-03T20:36:14;7.10;;;3.47;;
17890;SDS011;9071;48.220;14.480;2023-04-03T20:41:16;8.10;;;3.57;;
17890;SDS011;9071;48.220;14.480;2023-04-03T20:46:19;6.67;;;3.50;;
17890;SDS011;9071;48.220;14.480;2023-04-03T20:51:24;7.77;;;3.40;;
17890;SDS011;9071;48.220;14.480;2023-04-03T20:56:28;11.33;;;4.23;;
17890;SDS011;9071;48.220;14.480;2023-04-03T21:01:32;5.63;;;3.57;;
17890;SDS011;9071;48.220;14.480;2023-04-03T21:23:24;5.57;;;3.37;;
17890;SDS011;9071;48.220;14.480;2023-04-03T21:28:27;4.87;;;3.00;;
17890;SDS011;9071;48.220;14.480;2023-04-03T21:33:31;5.27;;;2.80;;
17890;SDS011;9071;48.220;14.480;2023-04-03T21:38:33;6.07;;;3.43;;
17890;SDS011;9071;48.220;14.480;2023-04-03T21:43:35;6.63;;;3.10;;
17890;SDS011;9071;48.220;14.480;2023-04-03T21:48:39;6.93;;;3.27;;
17890;SDS011;9071;48.220;14.480;2023-04-03T21:53:41;6.70;;;3.33;;
17890;SDS011;9071;48.220;14.480;2023-04-03T21:58:44;6.40;;;3.03;;
17890;SDS011;9071;48.220;14.480;2023-04-03T22:03:47;7.23;;;2.90;;
17890;SDS011;9071;48.220;14.480;2023-04-03T22:08:49;5.83;;;3.60;;
17890;SDS011;9071;48.220;14.480;2023-04-03T22:13:52;4.87;;;2.77;;
17890;SDS011;9071;48.220;14.480;2023-04-03T22:18:57;5.37;;;2.90;;
17890;SDS011;9071;48.220;14.480;2023-04-03T22:24:00;6.27;;;2.80;;
17890;SDS011;9071;48.220;14.480;2023-04-03T22:29:02;6.90;;;3.13;;
17890;SDS011;9071;48.220;14.480;2023-04-03T22:34:06;6.70;;;3.53;;
17890;SDS011;9071;48.220;14.480;2023-04-03T22:39:09;18.00;;;6.93;;
17890;SDS011;9071;48.220;14.480;2023-04-03T22:44:12;6.67;;;2.80;;
17890;SDS011;9071;48.220;14.480;2023-04-03T22:49:18;3.97;;;2.70;;
17890;SDS011;9071;48.220;14.480;2023-04-03T22:54:20;5.20;;;3.03;;
17890;SDS011;9071;48.220;14.480;2023-04-03T22:59:22;5.73;;;2.97;;
17890;SDS011;9071;48.220;14.480;2023-04-03T23:04:26;7.20;;;3.30;;
17890;SDS011;9071;48.220;14.480;2023-04-03T23:09:28;17.03;;;5.67;;
17890;SDS011;9071;48.220;14.480;2023-04-03T23:14:31;8.87;;;3.93;;
17890;SDS011;9071;48.220;14.480;2023-04-03T23:19:34;5.70;;;2.93;;
17890;SDS011;9071;48.220;14.480;2023-04-03T23:24:36;11.83;;;4.00;;
17890;SDS011;9071;48.220;14.480;2023-04-03T23:29:39;19.67;;;5.27;;
17890;SDS011;9071;48.220;14.480;2023-04-03T23:34:43;12.73;;;5.00;;
17890;SDS011;9071;48.220;14.480;2023-04-03T23:39:46;7.43;;;3.40;;
17890;SDS011;9071;48.220;14.480;2023-04-03T23:44:48;12.53;;;3.87;;
17890;SDS011;9071;48.220;14.480;2023-04-03T23:49:51;6.83;;;2.57;;
17890;SDS011;9071;48.220;14.480;2023-04-03T23:54:53;4.87;;;3.13;;
17890;SDS011;9071;48.220;14.480;2023-04-03T23:59:56;7.73;;;3.17;;
